sensor_id;sensor_type;location;lat;lon;timestamp;pressure;altitude;pressure_sealevel;temperature;humidity
10310;BME280;5200;43.236;27.986;2023-01-26T00:02:19;100931.78;;;0.73;100.00
10310;BME280;5200;43.236;27.986;2023-01-26T00:04:46;100919.81;;;0.69;100.00
10310;BME280;5200;43.236;27.986;2023-01-26T00:07:13;100911.25;;;0.67;100.00
10310;BME280;5200;43.236;27.986;2023-01-26T00:09:40;100928.28;;;0.74;100.00
10310;BME280;5200;43.236;27.986;2023-01-26T00:12:08;100916.25;;;0.73;100.00
10310;BME280;5200;43.236;27.986;2023-01-26T00:14:35;100915.31;;;0.74;100.00
10310;BME280;5200;43.236;27.986;2023-01-26T00:17:19;100904.84;;;0.77;100.00
10310;BME280;5200;43.236;27.986;2023-01-26T00:19:55;100917.81;;;0.77;100.00
10310;BME280;5200;43.236;27.986;2023-01-26T00:22:23;100913.56;;;0.75;100.00
10310;BME280;5200;43.236;27.986;2023-01-26T00:24:51;100913.56;;;0.75;100.00
10310;BME280;5200;43.236;27.986;2023-01-26T00:27:19;100911.91;;;0.74;100.00
10310;BME280;5200;43.236;27.986;2023-01-26T00:29:46;100917.13;;;0.72;100.00
10310;BME280;5200;43.236;27.986;2023-01-26T00:32:12;100908.50;;;0.72;100.00
10310;BME280;5200;43.236;27.986;2023-01-26T00:34:39;100902.53;;;0.70;100.00
10310;BME280;5200;43.236;27.986;2023-01-26T00:37:06;100909.28;;;0.75;100.00
10310;BME280;5200;43.236;27.986;2023-01-26T00:39:33;100896.56;;;0.68;100.00
10310;BME280;5200;43.236;27.986;2023-01-26T00:42:00;100903.34;;;0.72;100.00
10310;BME280;5200;43.236;27.986;2023-01-26T00:44:39;100899.09;;;0.69;100.00
10310;BME280;5200;43.236;27.986;2023-01-26T00:47:08;100895.75;;;0.66;100.00
10310;BME280;5200;43.236;27.986;2023-01-26T00:49:35;100888.00;;;0.66;100.00
10310;BME280;5200;43.236;27.986;2023-01-26T00:52:02;100883.88;;;0.60;100.00
10310;BME280;5200;43.236;27.986;2023-01-26T00:54:30;100883.75;;;0.63;100.00
10310;BME280;5200;43.236;27.986;2023-01-26T00:56:57;100889.75;;;0.65;100.00
10310;BME280;5200;43.236;27.986;2023-01-26T00:59:23;100873.25;;;0.68;100.00
10310;BME280;5200;43.236;27.986;2023-01-26T01:01:52;100875.91;;;0.66;100.00
10310;BME280;5200;43.236;27.986;2023-01-26T01:04:19;100868.84;;;0.70;100.00
10310;BME280;5200;43.236;27.986;2023-01-26T01:06:46;100862.97;;;0.66;100.00
10310;BME280;5200;43.236;27.986;2023-01-26T01:09:13;100866.22;;;0.71;100.00
10310;BME280;5200;43.236;27.986;2023-01-26T01:11:40;100851.56;;;0.70;100.00
10310;BME280;5200;43.236;27.986;2023-01-26T01:14:08;100866.94;;;0.75;100.00
10310;BME280;5200;43.236;27.986;2023-01-26T01:16:35;100848.03;;;0.73;100.00
10310;BME280;5200;43.236;27.986;2023-01-26T01:19:03;100854.63;;;0.81;100.00
10310;BME280;5200;43.236;27.986;2023-01-26T01:21:30;100863.16;;;0.85;100.00
10310;BME280;5200;43.236;27.986;2023-01-26T01:23:58;100866.59;;;0.86;100.00
10310;BME280;5200;43.236;27.986;2023-01-26T01:26:25;100860.59;;;0.83;100.00
10310;BME280;5200;43.236;27.986;2023-01-26T01:28:52;100827.75;;;0.60;100.00
10310;BME280;5200;43.236;27.986;2023-01-26T01:31:19;100826.78;;;0.63;100.00
10310;BME280;5200;43.236;27.986;2023-01-26T01:33:46;100814.88;;;0.59;100.00
10310;BME280;5200;43.236;27.986;2023-01-26T01:36:15;100811.31;;;0.61;100.00
10310;BME280;5200;43.236;27.986;2023-01-26T01:38:44;100850.13;;;0.87;100.00
10310;BME280;5200;43.236;27.986;2023-01-26T01:41:12;100818.00;;;0.67;100.00
10310;BME280;5200;43.236;27.986;2023-01-26T01:43:39;100817.09;;;0.68;100.00
10310;BME280;5200;43.236;27.986;2023-01-26T01:46:13;100828.97;;;0.75;100.00
10310;BME280;5200;43.236;27.986;2023-01-26T01:48:46;100835.94;;;0.73;100.00
10310;BME280;5200;43.236;27.986;2023-01-26T01:51:19;100835.69;;;0.79;100.00
10310;BME280;5200;43.236;27.986;2023-01-26T01:53:48;100808.72;;;0.61;100.00
10310;BME280;5200;43.236;27.986;2023-01-26T01:56:19;100827.47;;;0.68;100.00
10310;BME280;5200;43.236;27.986;2023-01-26T01:58:51;100824.78;;;0.71;100.00
10310;BME280;5200;43.236;27.986;2023-01-26T02:01:19;100856.78;;;0.94;100.00
10310;BME280;5200;43.236;27.986;2023-01-26T02:03:49;100841.34;;;0.91;100.00
10310;BME280;5200;43.236;27.986;2023-01-26T02:06:22;100850.63;;;0.96;100.00
10310;BME280;5200;43.236;27.986;2023-01-26T02:08:53;100852.38;;;0.96;100.00
10310;BME280;5200;43.236;27.986;2023-01-26T02:11:24;100847.38;;;0.91;100.00
10310;BME280;5200;43.236;27.986;2023-01-26T02:13:51;100839.44;;;0.96;100.00
10310;BME280;5200;43.236;27.986;2023-01-26T02:16:19;100842.13;;;0.93;100.00
10310;BME280;5200;43.236;27.986;2023-01-26T02:18:46;100840.38;;;0.93;100.00
10310;BME280;5200;43.236;27.986;2023-01-26T02:21:16;100807.31;;;0.76;100.00
10310;BME280;5200;43.236;27.986;2023-01-26T02:23:52;100829.97;;;0.95;100.00
10310;BME280;5200;43.236;27.986;2023-01-26T02:26:24;100819.03;;;0.87;100.00
10310;BME280;5200;43.236;27.986;2023-01-26T02:28:52;100804.09;;;0.70;100.00
10310;BME280;5200;43.236;27.986;2023-01-26T02:31:21;100792.22;;;0.64;100.00
10310;BME280;5200;43.236;27.986;2023-01-26T02:33:49;100818.41;;;0.80;100.00
10310;BME280;5200;43.236;27.986;2023-01-26T02:36:19;100783.09;;;0.54;100.00
10310;BME280;5200;43.236;27.986;2023-01-26T02:38:52;100815.38;;;0.69;100.00
10310;BME280;5200;43.236;27.986;2023-01-26T02:41:22;100783.31;;;0.48;100.00
10310;BME280;5200;43.236;27.986;2023-01-26T02:44:09;100793.56;;;0.51;100.00
10310;BME280;5200;43.236;27.986;2023-01-26T02:46:37;100764.88;;;0.32;100.00
10310;BME280;5200;43.236;27.986;2023-01-26T02:49:03;100804.72;;;0.53;100.00
10310;BME280;5200;43.236;27.986;2023-01-26T02:51:48;100798.63;;;0.54;100.00
10310;BME280;5200;43.236;27.986;2023-01-26T02:54:15;100762.66;;;0.46;100.00
10310;BME280;5200;43.236;27.986;2023-01-26T02:56:57;100751.47;;;0.46;100.00
10310;BME280;5200;43.236;27.986;2023-01-26T02:59:24;100791.78;;;0.76;100.00
10310;BME280;5200;43.236;27.986;2023-01-26T03:01:51;100783.69;;;0.86;100.00
10310;BME280;5200;43.236;27.986;2023-01-26T03:04:18;100775.91;;;0.86;100.00
10310;BME280;5200;43.236;27.986;2023-01-26T03:06:45;100752.72;;;0.82;100.00
10310;BME280;5200;43.236;27.986;2023-01-26T03:09:12;100748.28;;;0.84;100.00
10310;BME280;5200;43.236;27.986;2023-01-26T03:11:39;100783.72;;;1.08;100.00
10310;BME280;5200;43.236;27.986;2023-01-26T03:14:09;100742.75;;;0.94;100.00
10310;BME280;5200;43.236;27.986;2023-01-26T03:16:36;100772.19;;;1.15;100.00
10310;BME280;5200;43.236;27.986;2023-01-26T03:19:03;100782.13;;;1.27;100.00
10310;BME280;5200;43.236;27.986;2023-01-26T03:21:47;100788.00;;;1.31;100.00
10310;BME280;5200;43.236;27.986;2023-01-26T03:24:32;100784.41;;;1.35;100.00
10310;BME280;5200;43.236;27.986;2023-01-26T03:27:15;100746.28;;;1.15;100.00
10310;BME280;5200;43.236;27.986;2023-01-26T03:29:56;100747.13;;;1.15;100.00
10310;BME280;5200;43.236;27.986;2023-01-26T03:32:24;100780.84;;;1.37;100.00
10310;BME280;5200;43.236;27.986;2023-01-26T03:34:51;100751.19;;;1.22;100.00
10310;BME280;5200;43.236;27.986;2023-01-26T03:37:18;100751.84;;;1.27;100.00
10310;BME280;5200;43.236;27.986;2023-01-26T03:39:48;100749.97;;;1.31;100.00
10310;BME280;5200;43.236;27.986;2023-01-26T03:42:32;100770.03;;;1.48;100.00
10310;BME280;5200;43.236;27.986;2023-01-26T03:45:18;100750.63;;;1.36;100.00
10310;BME280;5200;43.236;27.986;2023-01-26T03:48:04;100754.72;;;1.42;100.00
10310;BME280;5200;43.236;27.986;2023-01-26T03:50:49;100780.00;;;1.59;100.00
10310;BME280;5200;43.236;27.986;2023-01-26T03:53:34;100784.25;;;1.60;100.00
10310;BME280;5200;43.236;27.986;2023-01-26T03:56:18;100753.03;;;1.41;100.00
10310;BME280;5200;43.236;27.986;2023-01-26T03:58:48;100767.44;;;1.48;100.00
10310;BME280;5200;43.236;27.986;2023-01-26T04:01:17;100762.94;;;1.53;100.00
10310;BME280;5200;43.236;27.986;2023-01-26T04:03:47;100773.66;;;1.66;100.00
10310;BME280;5200;43.236;27.986;2023-01-26T04:06:32;100781.00;;;1.77;100.00
10310;BME280;5200;43.236;27.986;2023-01-26T04:09:16;100758.13;;;1.64;100.00
10310;BME280;5200;43.236;27.986;2023-01-26T04:11:43;100772.97;;;1.83;100.00
10310;BME280;5200;43.236;27.986;2023-01-26T04:14:11;100744.09;;;1.70;100.00
10310;BME280;5200;43.236;27.986;2023-01-26T04:16:58;100783.88;;;1.91;100.00
10310;BME280;5200;43.236;27.986;2023-01-26T04:19:42;100781.34;;;1.89;100.00
10310;BME280;5200;43.236;27.986;2023-01-26T04:22:27;100771.94;;;1.87;100.00
10310;BME280;5200;43.236;27.986;2023-01-26T04:24:54;100775.03;;;1.95;100.00
10310;BME280;5200;43.236;27.986;2023-01-26T04:27:21;100769.00;;;1.95;100.00
10310;BME280;5200;43.236;27.986;2023-01-26T04:29:48;100769.84;;;1.95;100.00
10310;BME280;5200;43.236;27.986;2023-01-26T04:32:17;100769.84;;;1.95;100.00
10310;BME280;5200;43.236;27.986;2023-01-26T04:34:43;100774.94;;;1.98;100.00
10310;BME280;5200;43.236;27.986;2023-01-26T04:37:10;100765.81;;;1.88;100.00
10310;BME280;5200;43.236;27.986;2023-01-26T04:39:37;100776.28;;;1.86;100.00
10310;BME280;5200;43.236;27.986;2023-01-26T04:42:04;100771.41;;;1.79;100.00
10310;BME280;5200;43.236;27.986;2023-01-26T04:44:31;100770.75;;;1.74;100.00
10310;BME280;5200;43.236;27.986;2023-01-26T04:46:58;100767.50;;;1.68;100.00
10310;BME280;5200;43.236;27.986;2023-01-26T04:49:26;100777.88;;;1.68;100.00
10310;BME280;5200;43.236;27.986;2023-01-26T04:51:53;100771.19;;;1.63;100.00
10310;BME280;5200;43.236;27.986;2023-01-26T04:54:20;100775.66;;;1.59;100.00
10310;BME280;5200;43.236;27.986;2023-01-26T04:56:47;100765.75;;;1.47;100.00
10310;BME280;5200;43.236;27.986;2023-01-26T04:59:14;100770.16;;;1.45;100.00
10310;BME280;5200;43.236;27.986;2023-01-26T05:01:41;100780.53;;;1.45;100.00
10310;BME280;5200;43.236;27.986;2023-01-26T05:04:09;100775.47;;;1.42;100.00
10310;BME280;5200;43.236;27.986;2023-01-26T05:06:38;100775.47;;;1.42;100.00
10310;BME280;5200;43.236;27.986;2023-01-26T05:09:06;100765.09;;;1.42;100.00
10310;BME280;5200;43.236;27.986;2023-01-26T05:11:34;100766.00;;;1.41;100.00
10310;BME280;5200;43.236;27.986;2023-01-26T05:14:00;100754.13;;;1.35;100.00
10310;BME280;5200;43.236;27.986;2023-01-26T05:16:27;100770.66;;;1.33;100.00
10310;BME280;5200;43.236;27.986;2023-01-26T05:18:54;100762.09;;;1.31;100.00
10310;BME280;5200;43.236;27.986;2023-01-26T05:21:21;100760.41;;;1.30;100.00
10310;BME280;5200;43.236;27.986;2023-01-26T05:23:53;100763.75;;;1.32;100.00
10310;BME280;5200;43.236;27.986;2023-01-26T05:26:20;100761.06;;;1.35;100.00
10310;BME280;5200;43.236;27.986;2023-01-26T05:28:47;100755.31;;;1.26;100.00
10310;BME280;5200;43.236;27.986;2023-01-26T05:31:13;100760.16;;;1.36;100.00
10310;BME280;5200;43.236;27.986;2023-01-26T05:33:40;100751.59;;;1.34;100.00
10310;BME280;5200;43.236;27.986;2023-01-26T05:36:07;100748.09;;;1.35;100.00
10310;BME280;5200;43.236;27.986;2023-01-26T05:38:34;100749.69;;;1.39;100.00
10310;BME280;5200;43.236;27.986;2023-01-26T05:41:03;100760.56;;;1.47;100.00
10310;BME280;5200;43.236;27.986;2023-01-26T05:43:31;100761.38;;;1.49;100.00
10310;BME280;5200;43.236;27.986;2023-01-26T05:45:58;100766.41;;;1.52;100.00
10310;BME280;5200;43.236;27.986;2023-01-26T05:48:25;100761.00;;;1.58;100.00
10310;BME280;5200;43.236;27.986;2023-01-26T05:50:54;100748.03;;;1.58;100.00
10310;BME280;5200;43.236;27.986;2023-01-26T05:53:21;100760.13;;;1.80;100.00
10310;BME280;5200;43.236;27.986;2023-01-26T05:55:48;100755.97;;;1.96;100.00
10310;BME280;5200;43.236;27.986;2023-01-26T05:58:16;100756.19;;;2.12;100.00
10310;BME280;5200;43.236;27.986;2023-01-26T06:00:43;100753.09;;;2.23;100.00
10310;BME280;5200;43.236;27.986;2023-01-26T06:03:10;100755.91;;;2.39;100.00
10310;BME280;5200;43.236;27.986;2023-01-26T06:05:37;100752.94;;;2.46;100.00
10310;BME280;5200;43.236;27.986;2023-01-26T06:08:04;100748.59;;;2.47;100.00
10310;BME280;5200;43.236;27.986;2023-01-26T06:10:31;100756.56;;;2.63;100.00
10310;BME280;5200;43.236;27.986;2023-01-26T06:12:59;100742.78;;;2.80;100.00
10310;BME280;5200;43.236;27.986;2023-01-26T06:15:27;100745.06;;;3.06;100.00
10310;BME280;5200;43.236;27.986;2023-01-26T06:17:54;100747.53;;;3.27;100.00
10310;BME280;5200;43.236;27.986;2023-01-26T06:20:21;100746.28;;;3.35;100.00
10310;BME280;5200;43.236;27.986;2023-01-26T06:22:48;100734.19;;;3.34;100.00
10310;BME280;5200;43.236;27.986;2023-01-26T06:25:15;100743.84;;;3.50;100.00
10310;BME280;5200;43.236;27.986;2023-01-26T06:27:41;100748.59;;;3.59;100.00
10310;BME280;5200;43.236;27.986;2023-01-26T06:30:09;100737.28;;;3.77;100.00
10310;BME280;5200;43.236;27.986;2023-01-26T06:32:38;100735.44;;;4.14;100.00
10310;BME280;5200;43.236;27.986;2023-01-26T06:35:06;100748.31;;;4.51;100.00
10310;BME280;5200;43.236;27.986;2023-01-26T06:37:33;100729.44;;;4.79;100.00
10310;BME280;5200;43.236;27.986;2023-01-26T06:40:01;100738.44;;;5.05;100.00
10310;BME280;5200;43.236;27.986;2023-01-26T06:42:27;100743.66;;;5.21;100.00
10310;BME280;5200;43.236;27.986;2023-01-26T06:44:54;100738.81;;;5.45;100.00
10310;BME280;5200;43.236;27.986;2023-01-26T06:47:23;100741.84;;;5.53;100.00
10310;BME280;5200;43.236;27.986;2023-01-26T06:49:51;100744.59;;;5.66;100.00
10310;BME280;5200;43.236;27.986;2023-01-26T06:52:21;100722.16;;;5.78;100.00
10310;BME280;5200;43.236;27.986;2023-01-26T06:54:51;100733.66;;;5.89;100.00
10310;BME280;5200;43.236;27.986;2023-01-26T06:57:18;100735.00;;;5.97;100.00
10310;BME280;5200;43.236;27.986;2023-01-26T06:59:45;100740.22;;;5.97;100.00
10310;BME280;5200;43.236;27.986;2023-01-26T07:02:16;100736.81;;;6.10;100.00
10310;BME280;5200;43.236;27.986;2023-01-26T07:04:43;100727.41;;;6.22;100.00
10310;BME280;5200;43.236;27.986;2023-01-26T07:07:11;100723.00;;;6.37;100.00
10310;BME280;5200;43.236;27.986;2023-01-26T07:09:38;100727.22;;;6.68;100.00
10310;BME280;5200;43.236;27.986;2023-01-26T07:12:05;100724.22;;;6.74;100.00
10310;BME280;5200;43.236;27.986;2023-01-26T07:14:32;100725.13;;;6.88;100.00
10310;BME280;5200;43.236;27.986;2023-01-26T07:16:59;100718.06;;;6.75;100.00
10310;BME280;5200;43.236;27.986;2023-01-26T07:19:26;100716.56;;;6.57;100.00
10310;BME280;5200;43.236;27.986;2023-01-26T07:21:54;100719.47;;;6.24;100.00
10310;BME280;5200;43.236;27.986;2023-01-26T07:24:23;100720.88;;;6.15;100.00
10310;BME280;5200;43.236;27.986;2023-01-26T07:26:50;100721.78;;;6.00;100.00
10310;BME280;5200;43.236;27.986;2023-01-26T07:29:18;100725.72;;;6.07;100.00
10310;BME280;5200;43.236;27.986;2023-01-26T07:31:44;100713.88;;;6.30;100.00
10310;BME280;5200;43.236;27.986;2023-01-26T07:34:12;100712.09;;;6.45;100.00
10310;BME280;5200;43.236;27.986;2023-01-26T07:36:39;100702.00;;;6.67;100.00
10310;BME280;5200;43.236;27.986;2023-01-26T07:39:06;100703.63;;;6.97;100.00
10310;BME280;5200;43.236;27.986;2023-01-26T07:41:34;100695.16;;;7.33;100.00
10310;BME280;5200;43.236;27.986;2023-01-26T07:44:01;100692.94;;;7.54;100.00
10310;BME280;5200;43.236;27.986;2023-01-26T07:46:29;100688.53;;;7.55;100.00
10310;BME280;5200;43.236;27.986;2023-01-26T07:48:56;100679.97;;;7.66;100.00
10310;BME280;5200;43.236;27.986;2023-01-26T07:51:22;100682.06;;;7.73;100.00
10310;BME280;5200;43.236;27.986;2023-01-26T07:53:49;100684.25;;;7.54;100.00
10310;BME280;5200;43.236;27.986;2023-01-26T07:56:17;100680.78;;;7.53;100.00
10310;BME280;5200;43.236;27.986;2023-01-26T07:58:50;100664.00;;;7.43;100.00
10310;BME280;5200;43.236;27.986;2023-01-26T08:01:17;100669.81;;;7.21;100.00
10310;BME280;5200;43.236;27.986;2023-01-26T08:03:44;100675.22;;;6.91;100.00
10310;BME280;5200;43.236;27.986;2023-01-26T08:06:12;100673.56;;;6.90;100.00
10310;BME280;5200;43.236;27.986;2023-01-26T08:08:39;100678.53;;;6.80;100.00
10310;BME280;5200;43.236;27.986;2023-01-26T08:11:07;100674.63;;;6.73;100.00
10310;BME280;5200;43.236;27.986;2023-01-26T08:13:34;100675.47;;;6.73;100.00
10310;BME280;5200;43.236;27.986;2023-01-26T08:16:03;100670.16;;;7.02;100.00
10310;BME280;5200;43.236;27.986;2023-01-26T08:18:31;100668.81;;;7.09;100.00
10310;BME280;5200;43.236;27.986;2023-01-26T08:20:58;100672.78;;;7.02;100.00
10310;BME280;5200;43.236;27.986;2023-01-26T08:23:25;100674.72;;;6.71;100.00
10310;BME280;5200;43.236;27.986;2023-01-26T08:25:52;100694.84;;;6.42;100.00
10310;BME280;5200;43.236;27.986;2023-01-26T08:28:20;100676.44;;;6.01;100.00
10310;BME280;5200;43.236;27.986;2023-01-26T08:30:47;100678.97;;;5.72;100.00
10310;BME280;5200;43.236;27.986;2023-01-26T08:33:15;100683.31;;;5.57;100.00
10310;BME280;5200;43.236;27.986;2023-01-26T08:35:42;100705.41;;;5.51;100.00
10310;BME280;5200;43.236;27.986;2023-01-26T08:38:09;100690.13;;;5.29;100.00
10310;BME280;5200;43.236;27.986;2023-01-26T08:40:36;100693.00;;;5.25;100.00
10310;BME280;5200;43.236;27.986;2023-01-26T08:43:03;100684.59;;;5.20;100.00
10310;BME280;5200;43.236;27.986;2023-01-26T08:45:30;100673.56;;;5.15;100.00
10310;BME280;5200;43.236;27.986;2023-01-26T08:47:57;100679.72;;;5.14;100.00
10310;BME280;5200;43.236;27.986;2023-01-26T08:50:26;100679.91;;;5.11;100.00
10310;BME280;5200;43.236;27.986;2023-01-26T08:52:54;100666.94;;;5.09;100.00
10310;BME280;5200;43.236;27.986;2023-01-26T08:55:22;100679.53;;;5.17;100.00
10310;BME280;5200;43.236;27.986;2023-01-26T08:57:51;100672.66;;;5.16;100.00
10310;BME280;5200;43.236;27.986;2023-01-26T09:00:21;100672.66;;;5.16;100.00
10310;BME280;5200;43.236;27.986;2023-01-26T09:02:48;100668.75;;;5.23;100.00
10310;BME280;5200;43.236;27.986;2023-01-26T09:05:15;100647.88;;;5.23;100.00
10310;BME280;5200;43.236;27.986;2023-01-26T09:07:43;100633.16;;;5.22;100.00
10310;BME280;5200;43.236;27.986;2023-01-26T09:10:10;100641.03;;;5.36;100.00
10310;BME280;5200;43.236;27.986;2023-01-26T09:12:38;100633.22;;;5.36;100.00
10310;BME280;5200;43.236;27.986;2023-01-26T09:15:06;100643.66;;;5.36;100.00
10310;BME280;5200;43.236;27.986;2023-01-26T09:17:33;100636.66;;;5.37;100.00
10310;BME280;5200;43.236;27.986;2023-01-26T09:20:00;100642.09;;;5.48;100.00
10310;BME280;5200;43.236;27.986;2023-01-26T09:22:27;100630.44;;;5.54;100.00
10310;BME280;5200;43.236;27.986;2023-01-26T09:24:56;100619.28;;;5.66;100.00
10310;BME280;5200;43.236;27.986;2023-01-26T09:27:23;100595.03;;;5.64;100.00
10310;BME280;5200;43.236;27.986;2023-01-26T09:29:50;100610.16;;;5.73;100.00
10310;BME280;5200;43.236;27.986;2023-01-26T09:32:18;100613.31;;;5.78;100.00
10310;BME280;5200;43.236;27.986;2023-01-26T09:34:44;100602.88;;;5.78;100.00
10310;BME280;5200;43.236;27.986;2023-01-26T09:37:11;100601.28;;;5.76;100.00
10310;BME280;5200;43.236;27.986;2023-01-26T09:39:38;100598.31;;;5.82;100.00
10310;BME280;5200;43.236;27.986;2023-01-26T09:42:30;100596.91;;;5.76;100.00
10310;BME280;5200;43.236;27.986;2023-01-26T09:45:11;100593.44;;;5.76;100.00
10310;BME280;5200;43.236;27.986;2023-01-26T09:47:56;100587.41;;;5.75;100.00
10310;BME280;5200;43.236;27.986;2023-01-26T09:50:27;100581.53;;;5.71;100.00
10310;BME280;5200;43.236;27.986;2023-01-26T09:52:59;100585.34;;;5.66;100.00
10310;BME280;5200;43.236;27.986;2023-01-26T09:55:28;100573.59;;;5.59;100.00
10310;BME280;5200;43.236;27.986;2023-01-26T09:58:00;100571.91;;;5.58;100.00
10310;BME280;5200;43.236;27.986;2023-01-26T10:00:30;100562.94;;;5.62;100.00
10310;BME280;5200;43.236;27.986;2023-01-26T10:03:12;100554.75;;;5.68;100.00
10310;BME280;5200;43.236;27.986;2023-01-26T10:05:46;100560.47;;;5.75;100.00
10310;BME280;5200;43.236;27.986;2023-01-26T10:08:17;100543.41;;;5.83;100.00
10310;BME280;5200;43.236;27.986;2023-01-26T10:10:49;100538.44;;;5.93;100.00
10310;BME280;5200;43.236;27.986;2023-01-26T10:13:20;100538.34;;;5.95;100.00
10310;BME280;5200;43.236;27.986;2023-01-26T10:15:51;100538.00;;;6.01;100.00
10310;BME280;5200;43.236;27.986;2023-01-26T10:18:24;100543.69;;;6.07;100.00
10310;BME280;5200;43.236;27.986;2023-01-26T10:20:53;100526.69;;;6.14;100.00
10310;BME280;5200;43.236;27.986;2023-01-26T10:23:23;100523.13;;;6.16;100.00
10310;BME280;5200;43.236;27.986;2023-01-26T10:25:52;100530.28;;;6.26;100.00
10310;BME280;5200;43.236;27.986;2023-01-26T10:28:26;100530.09;;;6.29;100.00
10310;BME280;5200;43.236;27.986;2023-01-26T10:30:53;100518.16;;;6.25;100.00
10310;BME280;5200;43.236;27.986;2023-01-26T10:33:25;100500.34;;;6.18;100.00
10310;BME280;5200;43.236;27.986;2023-01-26T10:35:54;100490.31;;;6.11;100.00
10310;BME280;5200;43.236;27.986;2023-01-26T10:38:38;100486.84;;;6.11;100.00
10310;BME280;5200;43.236;27.986;2023-01-26T10:41:09;100481.22;;;6.17;100.00
10310;BME280;5200;43.236;27.986;2023-01-26T10:43:51;100482.75;;;6.34;100.00
10310;BME280;5200;43.236;27.986;2023-01-26T10:46:24;100474.78;;;6.50;100.00
10310;BME280;5200;43.236;27.986;2023-01-26T10:48:52;100479.28;;;6.61;100.00
10310;BME280;5200;43.236;27.986;2023-01-26T10:51:23;100486.72;;;6.54;100.00
10310;BME280;5200;43.236;27.986;2023-01-26T10:54:13;100486.16;;;6.49;100.00
10310;BME280;5200;43.236;27.986;2023-01-26T10:56:45;100479.78;;;6.53;100.00
10310;BME280;5200;43.236;27.986;2023-01-26T10:59:23;100486.66;;;6.68;100.00
10310;BME280;5200;43.236;27.986;2023-01-26T11:01:52;100463.59;;;6.61;100.00
10310;BME280;5200;43.236;27.986;2023-01-26T11:04:20;100482.34;;;6.67;100.00
10310;BME280;5200;43.236;27.986;2023-01-26T11:06:48;100477.00;;;6.69;100.00
10310;BME280;5200;43.236;27.986;2023-01-26T11:09:20;100452.13;;;6.63;100.00
10310;BME280;5200;43.236;27.986;2023-01-26T11:11:57;100462.66;;;6.62;100.00
10310;BME280;5200;43.236;27.986;2023-01-26T11:14:27;100446.09;;;6.48;100.00
10310;BME280;5200;43.236;27.986;2023-01-26T11:16:58;100477.53;;;6.61;100.00
10310;BME280;5200;43.236;27.986;2023-01-26T11:19:41;100469.97;;;6.56;100.00
10310;BME280;5200;43.236;27.986;2023-01-26T11:22:16;100473.44;;;6.57;100.00
10310;BME280;5200;43.236;27.986;2023-01-26T11:24:50;100468.19;;;6.57;100.00
10310;BME280;5200;43.236;27.986;2023-01-26T11:27:39;100461.28;;;6.56;100.00
10310;BME280;5200;43.236;27.986;2023-01-26T11:33:15;100456.31;;;6.39;100.00
10310;BME280;5200;43.236;27.986;2023-01-26T11:35:50;100461.34;;;6.42;100.00
10310;BME280;5200;43.236;27.986;2023-01-26T11:38:29;100456.53;;;6.35;100.00
10310;BME280;5200;43.236;27.986;2023-01-26T11:41:04;100466.56;;;6.42;100.00
10310;BME280;5200;43.236;27.986;2023-01-26T11:43:51;100458.00;;;6.40;100.00
10310;BME280;5200;43.236;27.986;2023-01-26T11:49:24;100435.56;;;6.50;100.00
10310;BME280;5200;43.236;27.986;2023-01-26T11:52:02;100429.91;;;6.56;100.00
10310;BME280;5200;43.236;27.986;2023-01-26T11:54:54;100442.59;;;6.62;100.00
10310;BME280;5200;43.236;27.986;2023-01-26T11:57:26;100448.88;;;6.72;100.00
10310;BME280;5200;43.236;27.986;2023-01-26T12:00:01;100449.50;;;6.63;100.00
10310;BME280;5200;43.236;27.986;2023-01-26T12:02:31;100452.41;;;6.59;100.00
10310;BME280;5200;43.236;27.986;2023-01-26T12:05:13;100429.50;;;6.49;100.00
10310;BME280;5200;43.236;27.986;2023-01-26T12:07:47;100449.38;;;6.65;100.00
10310;BME280;5200;43.236;27.986;2023-01-26T12:10:22;100408.47;;;6.51;100.00
10310;BME280;5200;43.236;27.986;2023-01-26T12:12:53;100403.06;;;6.54;100.00
10310;BME280;5200;43.236;27.986;2023-01-26T12:15:25;100440.31;;;6.70;100.00
10310;BME280;5200;43.236;27.986;2023-01-26T12:17:58;100421.06;;;6.59;100.00
10310;BME280;5200;43.236;27.986;2023-01-26T12:20:30;100440.09;;;6.73;100.00
10310;BME280;5200;43.236;27.986;2023-01-26T12:23:03;100433.72;;;6.77;100.00
10310;BME280;5200;43.236;27.986;2023-01-26T12:25:33;100438.41;;;6.72;100.00
10310;BME280;5200;43.236;27.986;2023-01-26T12:28:15;100408.06;;;6.57;100.00
10310;BME280;5200;43.236;27.986;2023-01-26T12:30:50;100429.63;;;6.73;100.00
10310;BME280;5200;43.236;27.986;2023-01-26T12:33:19;100431.44;;;6.73;100.00
10310;BME280;5200;43.236;27.986;2023-01-26T12:36:00;100419.41;;;6.70;100.00
10310;BME280;5200;43.236;27.986;2023-01-26T12:38:39;100440.41;;;6.82;100.00
10310;BME280;5200;43.236;27.986;2023-01-26T12:41:13;100422.94;;;6.69;100.00
10310;BME280;5200;43.236;27.986;2023-01-26T12:43:52;100427.84;;;6.61;100.00
10310;BME280;5200;43.236;27.986;2023-01-26T12:46:23;100411.50;;;6.57;100.00
10310;BME280;5200;43.236;27.986;2023-01-26T12:48:56;100413.28;;;6.57;100.00
10310;BME280;5200;43.236;27.986;2023-01-26T12:51:31;100406.81;;;6.50;100.00
10310;BME280;5200;43.236;27.986;2023-01-26T12:54:04;100380.00;;;6.46;100.00
10310;BME280;5200;43.236;27.986;2023-01-26T12:56:37;100409.53;;;6.61;100.00
10310;BME280;5200;43.236;27.986;2023-01-26T12:59:11;100380.53;;;6.39;100.00
10310;BME280;5200;43.236;27.986;2023-01-26T13:01:40;100391.72;;;6.41;100.00
10310;BME280;5200;43.236;27.986;2023-01-26T13:04:09;100404.50;;;6.45;100.00
10310;BME280;5200;43.236;27.986;2023-01-26T13:06:38;100396.94;;;6.41;100.00
10310;BME280;5200;43.236;27.986;2023-01-26T13:09:19;100364.94;;;6.24;100.00
10310;BME280;5200;43.236;27.986;2023-01-26T13:11:49;100388.59;;;6.35;100.00
10310;BME280;5200;43.236;27.986;2023-01-26T13:14:32;100386.72;;;6.38;100.00